Time;durP1;ratioP1;P1;durP2;ratioP2;P2;SDS_P1;SDS_P2;PMS_P1;PMS_P2;Temp;Humidity;BMP_temperature;BMP_pressure;BME280_temperature;BME280_humidity;BME280_pressure;Samples;Min_cycle;Max_cycle;Signal;HPM_P1;HPM_P2
2023/10/18 00:00:49;;;;;;;1.70;1.40;;;15.00;70.70;;;;;;6334615;22;20614;-85
2023/10/18 00:03:19;;;;;;;0.47;0.47;;;15.00;70.60;;;;;;6333988;22;20164;-88
2023/10/18 00:05:48;;;;;;;0.90;0.90;;;15.00;70.60;;;;;;6331661;22;20167;-86
2023/10/18 00:08:17;;;;;;;0.30;0.30;;;15.00;70.60;;;;;;6333391;22;20168;-87
2023/10/18 00:10:50;;;;;;;3.30;1.13;;;15.00;70.60;;;;;;6332601;22;20610;-87
2023/10/18 00:13:22;;;;;;;0.30;0.30;;;15.00;70.50;;;;;;6332888;22;20199;-86
2023/10/18 00:15:52;;;;;;;0.50;0.50;;;15.00;70.50;;;;;;6333345;22;20160;-87
2023/10/18 00:18:21;;;;;;;0.73;0.73;;;15.00;70.70;;;;;;6333105;22;20176;-87
2023/10/18 00:20:59;;;;;;;0.97;0.70;;;15.00;70.60;;;;;;6332672;22;20625;-87
2023/10/18 00:23:30;;;;;;;1.17;1.07;;;15.10;70.50;;;;;;6333159;22;20661;-85
2023/10/18 00:26:05;;;;;;;0.70;0.70;;;15.10;70.40;;;;;;6334157;22;20164;-85
2023/10/18 00:28:36;;;;;;;0.73;0.73;;;15.00;70.20;;;;;;6334528;22;20212;-84
2023/10/18 00:31:13;;;;;;;0.40;0.40;;;15.10;70.10;;;;;;6333840;22;20509;-86
2023/10/18 00:33:44;;;;;;;1.47;1.03;;;15.10;70.20;;;;;;6332054;22;20214;-86
2023/10/18 00:36:16;;;;;;;2.33;1.37;;;15.10;70.00;;;;;;6332418;22;20550;-87
2023/10/18 00:38:48;;;;;;;0.40;0.40;;;15.10;69.90;;;;;;6333406;22;20259;-85
2023/10/18 00:41:22;;;;;;;0.93;0.40;;;15.10;69.80;;;;;;6333320;22;20168;-85
2023/10/18 00:43:52;;;;;;;2.53;0.50;;;15.10;69.70;;;;;;6333704;22;20164;-85
2023/10/18 00:46:23;;;;;;;0.80;0.80;;;15.20;69.70;;;;;;6334085;22;20168;-87
2023/10/18 00:48:52;;;;;;;0.60;0.60;;;15.10;69.60;;;;;;6332515;22;20199;-87
2023/10/18 00:51:24;;;;;;;0.40;0.40;;;15.10;69.60;;;;;;6333665;22;20251;-85
2023/10/18 00:53:54;;;;;;;0.97;0.97;;;15.20;69.50;;;;;;6333827;22;20218;-86
2023/10/18 00:56:27;;;;;;;1.20;1.10;;;15.20;69.40;;;;;;6333715;22;20647;-86
2023/10/18 00:59:01;;;;;;;1.53;1.40;;;15.20;69.40;;;;;;6332658;22;20475;-83
2023/10/18 01:01:35;;;;;;;2.80;1.50;;;15.20;69.40;;;;;;6332049;22;20622;-86
2023/10/18 01:04:05;;;;;;;0.73;0.73;;;15.20;69.30;;;;;;6332192;22;20670;-87
2023/10/18 01:06:36;;;;;;;0.97;0.80;;;15.20;69.20;;;;;;6333586;22;20228;-85
2023/10/18 01:09:05;;;;;;;0.80;0.80;;;15.10;69.10;;;;;;6332604;22;20165;-86
2023/10/18 01:11:37;;;;;;;0.70;0.70;;;15.10;69.10;;;;;;6333137;22;20165;-85
2023/10/18 01:14:08;;;;;;;1.03;0.93;;;15.10;69.20;;;;;;6334945;22;20184;-86
2023/10/18 01:16:38;;;;;;;2.00;1.50;;;15.10;69.10;;;;;;6334173;22;20624;-86
2023/10/18 01:19:08;;;;;;;1.80;1.23;;;15.10;69.20;;;;;;6334327;22;20263;-86
2023/10/18 01:21:37;;;;;;;0.70;0.70;;;15.10;69.30;;;;;;6335181;22;20231;-86
2023/10/18 01:24:14;;;;;;;0.70;0.70;;;15.10;69.30;;;;;;6342916;22;20641;-85
2023/10/18 01:26:46;;;;;;;1.17;0.47;;;15.10;69.40;;;;;;6352715;22;20160;-84
2023/10/18 01:29:15;;;;;;;0.70;0.70;;;15.10;69.40;;;;;;6350572;22;20164;-85
2023/10/18 01:31:45;;;;;;;0.60;0.60;;;15.00;69.40;;;;;;6352203;22;20164;-84
2023/10/18 01:34:14;;;;;;;0.50;0.50;;;15.10;69.40;;;;;;6351108;22;20679;-85
2023/10/18 01:36:52;;;;;;;1.53;0.83;;;15.00;69.40;;;;;;6340591;22;20540;-87
2023/10/18 01:39:37;;;;;;;2.33;0.80;;;15.00;69.30;;;;;;6341520;22;20214;-87
2023/10/18 01:42:44;;;;;;;2.67;1.47;;;15.00;69.30;;;;;;6345653;22;20169;-87
2023/10/18 01:45:22;;;;;;;1.73;1.00;;;15.00;69.50;;;;;;6340141;22;20164;-85
2023/10/18 01:47:52;;;;;;;0.30;0.30;;;15.00;69.40;;;;;;6335574;22;20531;-87
2023/10/18 01:50:23;;;;;;;0.73;0.73;;;15.00;69.60;;;;;;6333983;22;20160;-85
2023/10/18 01:52:52;;;;;;;0.30;0.30;;;15.00;69.40;;;;;;6333233;22;20305;-85
2023/10/18 01:55:22;;;;;;;1.17;0.97;;;14.90;69.30;;;;;;6334885;22;20225;-87
2023/10/18 01:57:52;;;;;;;0.80;0.80;;;14.90;69.40;;;;;;6332939;22;20248;-87
2023/10/18 02:00:34;;;;;;;1.30;1.20;;;14.90;69.40;;;;;;6334665;22;20547;-87
2023/10/18 02:03:03;;;;;;;4.93;1.13;;;14.90;69.30;;;;;;6335706;22;20233;-85
2023/10/18 02:05:32;;;;;;;0.77;0.77;;;14.90;69.50;;;;;;6334010;22;20183;-86
2023/10/18 02:08:01;;;;;;;0.60;0.60;;;14.90;69.40;;;;;;6332475;22;20168;-86
2023/10/18 02:10:29;;;;;;;0.30;0.30;;;14.90;69.40;;;;;;6333721;22;20176;-87
2023/10/18 02:13:00;;;;;;;0.40;0.40;;;14.90;69.30;;;;;;6331101;22;20193;-84
2023/10/18 02:15:30;;;;;;;4.53;1.00;;;14.90;69.40;;;;;;6334106;22;20165;-85
2023/10/18 02:18:02;;;;;;;0.90;0.57;;;14.90;69.60;;;;;;6332583;22;20188;-85
2023/10/18 02:20:34;;;;;;;0.87;0.87;;;14.80;69.90;;;;;;6333812;22;20168;-86
2023/10/18 02:23:11;;;;;;;1.13;1.03;;;14.80;70.00;;;;;;6332604;22;20160;-86
2023/10/18 02:25:49;;;;;;;0.60;0.60;;;14.80;70.20;;;;;;6334209;22;20247;-87
2023/10/18 02:28:23;;;;;;;0.40;0.40;;;14.70;70.20;;;;;;6332698;22;20164;-87
2023/10/18 02:30:56;;;;;;;0.77;0.77;;;14.70;70.00;;;;;;6332721;22;20169;-85
2023/10/18 02:33:36;;;;;;;1.03;0.70;;;14.70;70.30;;;;;;6334090;22;20225;-85
2023/10/18 02:36:11;;;;;;;2.40;1.00;;;14.70;70.50;;;;;;6329392;22;20214;-86
2023/10/18 02:38:41;;;;;;;0.40;0.40;;;14.70;70.60;;;;;;6332510;22;20200;-86
2023/10/18 02:41:19;;;;;;;0.83;0.73;;;14.60;70.40;;;;;;6332606;22;20214;-86
2023/10/18 02:43:50;;;;;;;0.40;0.40;;;14.60;70.50;;;;;;6331497;22;20575;-86
2023/10/18 02:46:20;;;;;;;0.67;0.67;;;14.60;70.60;;;;;;6331073;22;20172;-86
2023/10/18 02:48:51;;;;;;;0.43;0.43;;;14.60;70.90;;;;;;6333259;22;20164;-88
2023/10/18 02:51:22;;;;;;;0.83;0.40;;;14.60;70.90;;;;;;6331401;22;20168;-85
2023/10/18 02:53:51;;;;;;;1.17;1.07;;;14.50;71.10;;;;;;6330738;22;20189;-84
2023/10/18 02:56:26;;;;;;;1.27;1.17;;;14.50;71.20;;;;;;6332064;22;20240;-86
2023/10/18 02:59:06;;;;;;;0.53;0.50;;;14.50;71.30;;;;;;6333504;22;20495;-87
2023/10/18 03:01:36;;;;;;;0.60;0.60;;;14.40;71.20;;;;;;6333442;22;20161;-85
2023/10/18 03:04:08;;;;;;;0.67;0.67;;;14.40;71.20;;;;;;6330791;22;20164;-86
2023/10/18 03:06:38;;;;;;;0.80;0.80;;;14.40;71.60;;;;;;6331948;22;20175;-87
2023/10/18 03:09:25;;;;;;;0.73;0.70;;;14.40;71.70;;;;;;6330582;22;20486;-86
2023/10/18 03:11:56;;;;;;;3.13;0.90;;;14.30;71.70;;;;;;6335204;22;20432;-86
2023/10/18 03:14:39;;;;;;;1.17;1.07;;;14.30;71.80;;;;;;6331748;22;20196;-87
2023/10/18 03:17:19;;;;;;;0.40;0.40;;;14.20;72.00;;;;;;6334494;22;20164;-87
2023/10/18 03:19:50;;;;;;;1.23;1.13;;;14.20;71.90;;;;;;6333268;22;20192;-87
2023/10/18 03:22:22;;;;;;;0.40;0.40;;;14.20;72.00;;;;;;6334066;22;20211;-86
2023/10/18 03:24:53;;;;;;;0.50;0.50;;;14.20;72.10;;;;;;6331318;22;20167;-84
2023/10/18 03:27:24;;;;;;;0.40;0.40;;;14.20;72.20;;;;;;6334090;22;20243;-88
2023/10/18 03:30:08;;;;;;;1.40;0.87;;;14.20;72.20;;;;;;6334236;22;20176;-88
2023/10/18 03:32:38;;;;;;;0.93;0.83;;;14.10;72.00;;;;;;6333859;22;20169;-87
2023/10/18 03:35:09;;;;;;;1.40;1.30;;;14.10;72.20;;;;;;6334728;22;20601;-84
2023/10/18 03:37:39;;;;;;;0.77;0.77;;;14.10;72.10;;;;;;6333165;22;20164;-86
2023/10/18 03:40:17;;;;;;;0.67;0.67;;;14.10;72.10;;;;;;6333822;22;20226;-85
2023/10/18 03:42:46;;;;;;;2.63;1.23;;;14.00;72.20;;;;;;6333651;22;20239;-86
2023/10/18 03:45:21;;;;;;;0.60;0.60;;;14.00;72.50;;;;;;6331277;22;20169;-84
2023/10/18 03:47:57;;;;;;;0.53;0.53;;;13.90;72.50;;;;;;6330648;22;20168;-85
2023/10/18 03:51:09;;;;;;;0.67;0.67;;;13.80;72.80;;;;;;6331451;22;20192;-84
2023/10/18 03:57:58;;;;;;;2.50;1.13;;;13.70;73.00;;;;;;6323708;22;20239;-86
2023/10/18 04:07:11;;;;;;;;;;;;;;;;;;;;;
2023/10/18 04:13:37;;;;;;;0.40;0.40;;;13.50;73.90;;;;;;6076948;22;20174;-85
2023/10/18 04:16:10;;;;;;;0.40;0.40;;;13.60;74.00;;;;;;6333085;22;20570;-84
2023/10/18 04:18:43;;;;;;;1.33;1.27;;;13.60;73.80;;;;;;6332564;22;20742;-84
2023/10/18 04:21:15;;;;;;;1.07;0.73;;;13.60;74.30;;;;;;6333487;22;21012;-85
2023/10/18 04:26:47;;;;;;;1.13;1.03;;;13.60;74.20;;;;;;6332887;22;20614;-83
2023/10/18 04:29:26;;;;;;;0.60;0.60;;;13.60;74.80;;;;;;6334003;22;20187;-85
2023/10/18 04:31:57;;;;;;;1.13;1.03;;;13.60;74.50;;;;;;6332279;22;20213;-87
2023/10/18 04:34:29;;;;;;;0.40;0.40;;;13.60;74.50;;;;;;6332750;22;20172;-87
2023/10/18 05:00:57;;;;;;;0.73;0.70;;;13.50;76.00;;;;;;6360975;22;20199;-85
2023/10/18 05:03:30;;;;;;;1.53;0.90;;;13.50;76.00;;;;;;6366128;22;20167;-88
2023/10/18 05:05:58;;;;;;;4.33;0.60;;;13.50;76.30;;;;;;6364649;22;20159;-86
2023/10/18 05:08:30;;;;;;;0.70;0.70;;;13.40;76.50;;;;;;6364912;22;20160;-87
2023/10/18 05:11:22;;;;;;;0.73;0.73;;;13.40;76.30;;;;;;6364084;22;20498;-84
2023/10/18 05:13:56;;;;;;;0.63;0.60;;;13.40;77.20;;;;;;6367186;22;20285;-88
2023/10/18 05:16:27;;;;;;;1.57;1.00;;;13.30;76.70;;;;;;6341455;22;20228;-88
2023/10/18 05:18:55;;;;;;;0.53;0.53;;;13.40;76.50;;;;;;6366743;22;20188;-85
2023/10/18 05:21:26;;;;;;;0.47;0.47;;;13.30;76.80;;;;;;6367660;22;20184;-87
2023/10/18 05:23:56;;;;;;;0.50;0.50;;;13.40;76.50;;;;;;6366820;22;20159;-88
2023/10/18 05:26:32;;;;;;;0.47;0.47;;;13.40;76.50;;;;;;6366632;22;20171;-86
2023/10/18 05:29:03;;;;;;;3.80;0.60;;;13.40;76.60;;;;;;6365628;22;20563;-84
2023/10/18 05:32:00;;;;;;;1.40;1.30;;;13.40;77.10;;;;;;6367360;22;20163;-86
2023/10/18 05:34:51;;;;;;;0.43;0.43;;;13.40;77.10;;;;;;6367589;22;20160;-87
2023/10/18 05:37:41;;;;;;;4.10;1.03;;;13.30;77.20;;;;;;6366618;22;20212;-87
2023/10/18 05:43:00;;;;;;;0.50;0.50;;;13.40;76.90;;;;;;6367076;22;20167;-88
2023/10/18 05:45:31;;;;;;;2.07;1.17;;;13.40;77.00;;;;;;6367275;22;20171;-88
2023/10/18 05:48:12;;;;;;;1.53;1.43;;;13.40;77.30;;;;;;6366044;22;20168;-87
2023/10/18 05:50:48;;;;;;;1.20;1.10;;;13.50;77.30;;;;;;6367640;22;20167;-86
2023/10/18 05:53:20;;;;;;;1.33;0.90;;;13.50;77.20;;;;;;6367134;22;20636;-88
2023/10/18 05:55:53;;;;;;;1.23;1.13;;;13.60;77.50;;;;;;6366004;22;20391;-87
2023/10/18 05:58:26;;;;;;;1.47;1.10;;;13.60;77.40;;;;;;6366615;22;20189;-88
2023/10/18 06:00:57;;;;;;;0.80;0.80;;;13.60;77.30;;;;;;6365372;22;20245;-85
2023/10/18 06:03:39;;;;;;;0.70;0.70;;;13.70;77.30;;;;;;6366161;22;20217;-88
2023/10/18 06:06:09;;;;;;;0.63;0.57;;;13.80;77.20;;;;;;6365697;22;20163;-87
2023/10/18 06:08:38;;;;;;;0.70;0.70;;;13.80;77.30;;;;;;6365991;22;20159;-87
2023/10/18 06:11:09;;;;;;;4.53;1.37;;;13.80;77.20;;;;;;6365501;22;20163;-87
2023/10/18 06:13:37;;;;;;;1.00;0.93;;;13.90;77.20;;;;;;6366895;22;20191;-88
2023/10/18 06:16:19;;;;;;;0.40;0.40;;;13.90;77.10;;;;;;6365632;22;20559;-87
2023/10/18 06:18:59;;;;;;;0.63;0.47;;;14.00;77.00;;;;;;6339025;22;20526;-87
2023/10/18 06:21:35;;;;;;;0.50;0.50;;;14.00;76.90;;;;;;6364565;22;20644;-87
2023/10/18 06:24:09;;;;;;;0.73;0.73;;;14.00;77.10;;;;;;6366766;22;20190;-86
2023/10/18 06:26:41;;;;;;;1.70;0.73;;;14.10;76.90;;;;;;6364753;22;20168;-88
2023/10/18 06:29:11;;;;;;;0.87;0.83;;;14.10;76.90;;;;;;6367639;22;20160;-87
2023/10/18 06:31:44;;;;;;;0.73;0.63;;;14.20;76.70;;;;;;6367028;22;20488;-87
2023/10/18 06:34:17;;;;;;;1.53;0.73;;;14.30;76.60;;;;;;6364696;22;20167;-86
2023/10/18 06:36:47;;;;;;;1.20;1.10;;;14.40;76.60;;;;;;6365161;22;20169;-86
2023/10/18 06:39:28;;;;;;;1.33;1.00;;;14.40;76.30;;;;;;6365976;22;20502;-88
2023/10/18 06:41:57;;;;;;;4.40;1.17;;;14.40;76.20;;;;;;6365182;22;20192;-86
2023/10/18 06:44:30;;;;;;;1.30;1.20;;;14.50;76.20;;;;;;6367816;22;20168;-86
2023/10/18 06:47:01;;;;;;;2.57;1.40;;;14.50;76.30;;;;;;6365239;22;20168;-87
2023/10/18 06:49:32;;;;;;;0.87;0.87;;;14.50;76.30;;;;;;6368979;22;20633;-86
2023/10/18 06:52:01;;;;;;;1.27;0.93;;;14.60;76.20;;;;;;6366463;22;20221;-87
2023/10/18 06:54:32;;;;;;;2.43;1.13;;;14.70;76.30;;;;;;6368720;22;20248;-88
2023/10/18 06:57:15;;;;;;;7.00;2.57;;;14.70;76.20;;;;;;6367989;22;20171;-85
2023/10/18 06:59:48;;;;;;;1.60;1.27;;;14.70;76.20;;;;;;6366811;22;20195;-88
2023/10/18 07:02:26;;;;;;;0.87;0.83;;;14.80;76.10;;;;;;6369074;22;20167;-85
2023/10/18 07:04:57;;;;;;;0.67;0.60;;;14.90;76.00;;;;;;6367935;22;20622;-88
2023/10/18 07:07:26;;;;;;;1.03;0.93;;;15.00;75.90;;;;;;6369773;22;20164;-88
2023/10/18 07:09:56;;;;;;;1.63;1.17;;;15.00;75.80;;;;;;6367111;22;20175;-86
2023/10/18 07:12:27;;;;;;;1.57;0.77;;;15.10;75.80;;;;;;6367468;22;20251;-87
2023/10/18 07:14:57;;;;;;;0.77;0.77;;;15.10;75.60;;;;;;6365217;22;20170;-87
2023/10/18 07:17:25;;;;;;;1.37;1.27;;;15.20;75.70;;;;;;6369184;22;20246;-87
2023/10/18 07:19:56;;;;;;;1.23;0.83;;;15.10;75.20;;;;;;6369381;22;20697;-86
2023/10/18 07:22:39;;;;;;;1.50;1.27;;;15.10;75.30;;;;;;6366934;22;20163;-87
2023/10/18 07:25:19;;;;;;;2.00;1.37;;;15.20;75.30;;;;;;6367276;22;20178;-86
2023/10/18 07:27:48;;;;;;;1.17;0.70;;;15.30;75.40;;;;;;6366565;22;20166;-88
2023/10/18 07:30:17;;;;;;;0.93;0.90;;;15.30;76.00;;;;;;6366131;22;20178;-87
2023/10/18 07:32:57;;;;;;;0.93;0.70;;;15.30;75.30;;;;;;6368144;22;20163;-87
2023/10/18 07:35:30;;;;;;;0.60;0.60;;;15.40;75.20;;;;;;6367469;22;20170;-85
2023/10/18 07:37:59;;;;;;;0.37;0.37;;;15.50;75.10;;;;;;6367537;22;20213;-86
2023/10/18 07:40:33;;;;;;;0.97;0.53;;;15.60;75.10;;;;;;6367086;22;20271;-87
2023/10/18 07:43:05;;;;;;;1.93;1.53;;;15.60;74.80;;;;;;6367879;22;20190;-89
2023/10/18 07:45:34;;;;;;;6.23;1.43;;;15.70;74.80;;;;;;6367668;22;20163;-86
2023/10/18 07:48:06;;;;;;;0.73;0.73;;;15.70;74.70;;;;;;6368094;22;20590;-87
2023/10/18 07:50:42;;;;;;;2.27;1.00;;;15.80;74.80;;;;;;6376624;22;20238;-88
2023/10/18 07:53:12;;;;;;;1.90;1.33;;;15.80;75.40;;;;;;6373239;22;20246;-86
2023/10/18 07:55:42;;;;;;;0.40;0.40;;;15.90;74.40;;;;;;6368215;22;20164;-86
2023/10/18 07:58:25;;;;;;;1.23;1.13;;;15.80;74.30;;;;;;6367890;22;20551;-87
2023/10/18 08:03:42;;;;;;;0.43;0.43;;;16.00;74.50;;;;;;6366495;22;20168;-87
2023/10/18 08:06:26;;;;;;;1.53;1.13;;;16.10;74.40;;;;;;6366356;22;20164;-86
2023/10/18 08:08:55;;;;;;;0.50;0.50;;;16.20;74.30;;;;;;6366960;22;20251;-86
2023/10/18 08:11:24;;;;;;;1.53;0.80;;;16.20;74.20;;;;;;6367496;22;20178;-85
2023/10/18 08:13:56;;;;;;;1.67;1.17;;;16.30;74.00;;;;;;6367919;22;20247;-87
2023/10/18 08:16:42;;;;;;;0.50;0.50;;;16.40;73.80;;;;;;6368383;22;20160;-88
2023/10/18 08:19:12;;;;;;;0.60;0.60;;;16.40;73.60;;;;;;6365500;22;20166;-88
2023/10/18 08:21:57;;;;;;;0.67;0.67;;;16.50;73.60;;;;;;6366361;22;20759;-87
2023/10/18 08:24:27;;;;;;;1.20;1.10;;;16.50;73.40;;;;;;6366407;22;20506;-85
2023/10/18 08:27:00;;;;;;;0.50;0.50;;;16.60;73.30;;;;;;6366675;22;20189;-85
2023/10/18 08:29:34;;;;;;;2.77;1.00;;;16.70;73.00;;;;;;6367352;22;20502;-87
2023/10/18 08:32:09;;;;;;;0.70;0.70;;;16.70;73.00;;;;;;6366873;22;20170;-86
2023/10/18 08:34:38;;;;;;;0.50;0.50;;;16.80;72.90;;;;;;6364925;22;20166;-88
2023/10/18 08:37:11;;;;;;;0.50;0.50;;;16.90;72.70;;;;;;6366013;22;20176;-86
2023/10/18 08:39:40;;;;;;;0.40;0.40;;;16.90;72.20;;;;;;6368116;22;20164;-86
2023/10/18 08:42:14;;;;;;;0.40;0.40;;;17.00;72.40;;;;;;6367811;22;20266;-87
2023/10/18 08:44:44;;;;;;;1.63;1.53;;;17.10;72.40;;;;;;6367116;22;20170;-87
2023/10/18 08:47:15;;;;;;;0.80;0.80;;;17.10;72.30;;;;;;6365579;22;20398;-87
2023/10/18 08:49:51;;;;;;;1.17;0.97;;;17.20;72.30;;;;;;6367950;22;20199;-86
2023/10/18 08:52:23;;;;;;;1.70;0.73;;;17.30;72.20;;;;;;6366564;22;20254;-88
2023/10/18 08:54:54;;;;;;;0.60;0.60;;;17.40;71.90;;;;;;6366015;22;20173;-86
2023/10/18 08:57:34;;;;;;;1.40;0.77;;;17.40;71.90;;;;;;6365412;22;20357;-86
2023/10/18 09:00:55;;;;;;;1.00;0.90;;;17.50;71.60;;;;;;6365805;22;20215;-85
2023/10/18 09:03:07;;;;;;;0.60;0.60;;;17.60;71.50;;;;;;6363209;22;20164;-87
2023/10/18 09:05:45;;;;;;;0.30;0.30;;;17.60;71.70;;;;;;6368272;22;20541;-86
2023/10/18 09:08:19;;;;;;;2.57;0.80;;;17.70;71.60;;;;;;6366462;22;20160;-86
2023/10/18 09:10:54;;;;;;;0.60;0.60;;;17.80;71.60;;;;;;6369107;22;20156;-85
2023/10/18 09:13:33;;;;;;;0.87;0.67;;;17.90;71.50;;;;;;6368223;22;20163;-87
2023/10/18 09:16:11;;;;;;;0.60;0.60;;;17.90;71.20;;;;;;6369412;22;20491;-90
2023/10/18 09:18:40;;;;;;;0.30;0.30;;;18.00;71.10;;;;;;6366939;22;20605;-86
2023/10/18 09:21:17;;;;;;;1.73;0.73;;;18.00;70.50;;;;;;6368813;22;20188;-87
2023/10/18 09:23:50;;;;;;;0.60;0.60;;;18.10;70.70;;;;;;6364473;22;20399;-85
2023/10/18 09:26:26;;;;;;;0.43;0.40;;;18.20;71.00;;;;;;6363931;22;20168;-86
2023/10/18 09:28:59;;;;;;;1.40;0.57;;;18.20;70.60;;;;;;6362377;22;20174;-86
2023/10/18 09:31:28;;;;;;;0.30;0.30;;;18.30;70.50;;;;;;6364179;22;20163;-86
2023/10/18 09:33:59;;;;;;;0.97;0.70;;;18.40;70.50;;;;;;6364871;22;20183;-86
2023/10/18 09:36:29;;;;;;;0.30;0.30;;;18.40;70.60;;;;;;6365246;22;20164;-87
2023/10/18 09:39:01;;;;;;;0.57;0.53;;;18.50;70.50;;;;;;6365283;22;20617;-85
2023/10/18 09:41:31;;;;;;;0.63;0.63;;;18.60;69.40;;;;;;6365785;22;20189;-88
2023/10/18 09:44:02;;;;;;;0.60;0.60;;;18.60;69.50;;;;;;6364336;22;20522;-86
2023/10/18 09:46:32;;;;;;;0.87;0.70;;;18.60;69.30;;;;;;6367191;22;20163;-89
2023/10/18 09:54:25;;;;;;;0.20;0.20;;;18.80;69.40;;;;;;6242784;22;20185;-86
2023/10/18 09:59:47;;;;;;;0.83;0.83;;;18.90;69.20;;;;;;6303444;22;20606;-85
2023/10/18 10:02:25;;;;;;;0.40;0.40;;;19.00;69.30;;;;;;6302078;22;20708;-86
2023/10/18 10:04:55;;;;;;;0.50;0.50;;;19.10;68.90;;;;;;6302635;22;20168;-86
2023/10/18 10:07:37;;;;;;;1.33;0.70;;;19.10;67.70;;;;;;6302428;22;20266;-85
2023/10/18 10:13:29;;;;;;;0.43;0.43;;;19.20;68.00;;;;;;6296580;22;20211;-87
2023/10/18 10:16:39;;;;;;;0.53;0.53;;;19.30;67.70;;;;;;6302738;22;20160;-86
2023/10/18 10:19:19;;;;;;;0.27;0.27;;;19.30;67.70;;;;;;6302196;22;20172;-87
2023/10/18 10:21:50;;;;;;;0.40;0.40;;;19.50;67.70;;;;;;6304693;22;20243;-87
2023/10/18 10:24:31;;;;;;;0.57;0.57;;;19.50;67.20;;;;;;6304469;22;20165;-87
2023/10/18 10:28:13;;;;;;;0.33;0.33;;;19.50;67.20;;;;;;6305512;22;20165;-87
2023/10/18 10:30:45;;;;;;;0.30;0.30;;;19.60;66.90;;;;;;6349868;22;20167;-85
2023/10/18 10:33:16;;;;;;;0.50;0.50;;;19.70;66.20;;;;;;6370725;22;20166;-87
2023/10/18 10:35:47;;;;;;;0.30;0.30;;;19.80;65.90;;;;;;6369521;22;20171;-88
2023/10/18 10:38:21;;;;;;;0.20;0.20;;;19.90;66.00;;;;;;6368800;22;20164;-87
2023/10/18 10:41:19;;;;;;;7.07;1.23;;;19.90;66.00;;;;;;6369193;22;20163;-87
2023/10/18 10:44:11;;;;;;;0.47;0.47;;;19.90;66.20;;;;;;6365955;22;20802;-82
2023/10/18 10:46:40;;;;;;;0.20;0.20;;;19.90;65.50;;;;;;6366352;22;20160;-89
2023/10/18 10:49:47;;;;;;;0.50;0.50;;;19.90;65.30;;;;;;6366419;22;20168;-84
2023/10/18 10:52:46;;;;;;;0.20;0.20;;;20.00;65.10;;;;;;6341377;22;20214;-88
2023/10/18 10:55:21;;;;;;;0.40;0.40;;;20.10;65.20;;;;;;6368059;22;20219;-84
2023/10/18 10:57:51;;;;;;;0.98;0.40;;;20.20;64.70;;;;;;6367051;22;20197;-86
2023/10/18 11:00:36;;;;;;;4.35;0.63;;;20.20;64.00;;;;;;6369379;22;20690;-87
2023/10/18 11:03:30;;;;;;;0.30;0.30;;;20.30;64.10;;;;;;6366477;22;20365;-84
2023/10/18 11:06:05;;;;;;;0.70;0.70;;;20.30;64.20;;;;;;6334183;22;20658;-88
2023/10/18 11:08:36;;;;;;;0.30;0.30;;;20.30;63.50;;;;;;6371744;22;20162;-85
2023/10/18 11:11:06;;;;;;;0.35;0.35;;;20.40;63.60;;;;;;6370031;22;20869;-85
2023/10/18 11:13:41;;;;;;;0.30;0.30;;;20.50;63.70;;;;;;6371139;22;20171;-87
2023/10/18 11:16:17;;;;;;;0.85;0.50;;;20.60;63.80;;;;;;6368984;22;20223;-84
2023/10/18 11:18:48;;;;;;;0.20;0.20;;;20.50;63.40;;;;;;6368931;22;20156;-88
2023/10/18 11:21:21;;;;;;;0.55;0.50;;;20.60;63.80;;;;;;6366976;22;20168;-84
2023/10/18 11:24:01;;;;;;;0.32;0.32;;;20.70;63.60;;;;;;6368076;22;20171;-82
2023/10/18 11:26:39;;;;;;;0.73;0.73;;;20.80;63.50;;;;;;6368372;22;20186;-86
2023/10/18 11:29:08;;;;;;;0.63;0.43;;;20.80;62.30;;;;;;6368192;22;20195;-84
2023/10/18 11:31:42;;;;;;;0.93;0.60;;;20.80;62.40;;;;;;6367269;22;20167;-88
2023/10/18 11:34:21;;;;;;;1.17;0.63;;;20.80;61.80;;;;;;6366742;22;20179;-83
2023/10/18 11:36:51;;;;;;;4.13;0.50;;;20.80;60.00;;;;;;6369741;22;20164;-87
2023/10/18 11:39:21;;;;;;;0.20;0.20;;;20.90;59.80;;;;;;6368579;22;20225;-84
2023/10/18 11:41:53;;;;;;;0.40;0.40;;;20.90;59.00;;;;;;6366561;22;20164;-86
2023/10/18 11:44:32;;;;;;;0.50;0.50;;;20.90;59.00;;;;;;6367298;22;20160;-86
2023/10/18 11:47:11;;;;;;;0.20;0.20;;;20.90;59.10;;;;;;6367435;22;20167;-84
2023/10/18 11:49:42;;;;;;;0.43;0.43;;;20.90;58.70;;;;;;6368091;22;20230;-86
2023/10/18 11:52:16;;;;;;;1.35;0.70;;;20.90;58.50;;;;;;6366044;22;20649;-85
2023/10/18 11:54:47;;;;;;;0.98;0.98;;;20.80;57.60;;;;;;6364886;22;20190;-84
2023/10/18 11:57:28;;;;;;;0.35;0.35;;;20.70;57.50;;;;;;6363949;22;20252;-87
2023/10/18 12:00:20;;;;;;;0.43;0.30;;;20.70;58.30;;;;;;6367075;22;20164;-84
2023/10/18 12:02:50;;;;;;;0.35;0.35;;;20.70;58.70;;;;;;6364594;22;20191;-85
2023/10/18 12:05:23;;;;;;;0.20;0.20;;;20.70;58.80;;;;;;6365765;22;20168;-83
2023/10/18 12:07:54;;;;;;;0.30;0.30;;;20.70;59.00;;;;;;6364856;22;20197;-86
2023/10/18 12:10:34;;;;;;;0.20;0.20;;;20.80;59.20;;;;;;6365573;22;20190;-86
2023/10/18 12:13:06;;;;;;;0.20;0.20;;;20.80;59.40;;;;;;6364169;22;20684;-87
2023/10/18 12:15:38;;;;;;;0.30;0.30;;;20.70;60.00;;;;;;6365731;22;20195;-89
2023/10/18 12:18:10;;;;;;;0.22;0.22;;;20.70;59.30;;;;;;6366449;22;20176;-84
2023/10/18 12:20:43;;;;;;;1.80;0.77;;;20.70;59.40;;;;;;6366077;22;20168;-86
2023/10/18 12:23:14;;;;;;;0.20;0.20;;;20.70;59.60;;;;;;6367214;22;20187;-85
2023/10/18 12:25:44;;;;;;;0.20;0.20;;;20.60;59.70;;;;;;6363110;22;20171;-84
2023/10/18 12:28:17;;;;;;;0.20;0.20;;;20.60;59.30;;;;;;6363324;22;21006;-87
2023/10/18 12:30:52;;;;;;;0.22;0.22;;;20.60;59.50;;;;;;6363868;22;20163;-85
2023/10/18 12:33:25;;;;;;;0.30;0.30;;;20.60;59.80;;;;;;6361281;22;20601;-83
2023/10/18 12:35:56;;;;;;;0.73;0.40;;;20.60;59.50;;;;;;6363859;22;20171;-83
2023/10/18 12:38:32;;;;;;;0.30;0.30;;;20.50;59.60;;;;;;6366357;22;20263;-82
2023/10/18 12:41:06;;;;;;;0.28;0.28;;;20.70;60.00;;;;;;6365424;22;20238;-85
2023/10/18 12:43:39;;;;;;;0.30;0.30;;;20.70;59.70;;;;;;6363767;22;20187;-84
2023/10/18 12:46:11;;;;;;;7.88;0.95;;;20.70;59.30;;;;;;6363552;22;20170;-85
2023/10/18 12:48:42;;;;;;;1.35;0.60;;;20.70;59.40;;;;;;6364044;22;20242;-83
2023/10/18 12:51:12;;;;;;;0.95;0.55;;;20.70;59.40;;;;;;6367197;22;20250;-84
2023/10/18 12:53:46;;;;;;;0.40;0.40;;;20.70;59.60;;;;;;6367282;22;20166;-84
2023/10/18 12:56:31;;;;;;;0.20;0.20;;;20.80;59.40;;;;;;6368815;22;20203;-83
2023/10/18 13:01:46;;;;;;;0.30;0.30;;;20.80;59.10;;;;;;6363898;22;20187;-84
2023/10/18 13:04:19;;;;;;;0.30;0.30;;;20.90;59.20;;;;;;6364193;22;20274;-84
2023/10/18 13:06:48;;;;;;;0.95;0.77;;;20.80;59.30;;;;;;6364739;22;20206;-84
2023/10/18 13:09:19;;;;;;;0.30;0.30;;;20.80;59.20;;;;;;6366242;22;20195;-86
2023/10/18 13:14:31;;;;;;;0.55;0.55;;;20.80;59.40;;;;;;6359747;22;20181;-83
2023/10/18 13:17:03;;;;;;;0.20;0.20;;;20.80;59.50;;;;;;6368702;22;20457;-85
2023/10/18 13:19:33;;;;;;;0.20;0.20;;;20.80;59.60;;;;;;6369977;22;20160;-84
2023/10/18 13:22:16;;;;;;;0.30;0.30;;;20.70;59.70;;;;;;6367596;22;20621;-84
2023/10/18 13:24:44;;;;;;;1.23;0.77;;;20.70;59.30;;;;;;6365696;22;20211;-85
2023/10/18 13:27:18;;;;;;;1.00;0.20;;;20.70;59.40;;;;;;6365510;22;20218;-85
2023/10/18 13:30:03;;;;;;;0.28;0.28;;;20.80;59.60;;;;;;6364690;22;20209;-83
2023/10/18 13:32:34;;;;;;;0.35;0.35;;;20.90;59.50;;;;;;6367051;22;20172;-85
2023/10/18 13:35:14;;;;;;;0.63;0.52;;;21.00;59.40;;;;;;6366214;22;20186;-86
2023/10/18 13:37:44;;;;;;;0.30;0.30;;;21.10;58.60;;;;;;6366238;22;20163;-84
2023/10/18 13:40:19;;;;;;;0.30;0.30;;;21.10;58.80;;;;;;6364821;22;20644;-84
2023/10/18 13:42:49;;;;;;;0.20;0.20;;;21.20;58.70;;;;;;6363572;22;20167;-85
2023/10/18 13:45:18;;;;;;;0.20;0.20;;;21.30;58.70;;;;;;6367441;22;20163;-85
2023/10/18 13:47:49;;;;;;;0.30;0.30;;;21.30;57.50;;;;;;6364687;22;20178;-87
2023/10/18 13:50:19;;;;;;;0.38;0.38;;;21.30;57.40;;;;;;6363116;22;20167;-85
2023/10/18 13:52:50;;;;;;;0.75;0.75;;;21.30;57.00;;;;;;6363924;22;20214;-89
2023/10/18 13:55:20;;;;;;;0.30;0.30;;;21.30;56.20;;;;;;6366627;22;20523;-89
2023/10/18 13:57:49;;;;;;;0.30;0.30;;;21.20;55.20;;;;;;6366325;22;20166;-88
2023/10/18 14:00:21;;;;;;;0.20;0.20;;;21.20;55.60;;;;;;6364718;22;20167;-85
2023/10/18 14:02:53;;;;;;;0.22;0.22;;;21.20;56.10;;;;;;6365736;22;20163;-86
2023/10/18 14:05:25;;;;;;;0.25;0.25;;;21.20;56.30;;;;;;6366565;22;20616;-86
2023/10/18 14:07:54;;;;;;;0.20;0.20;;;21.10;55.60;;;;;;6365104;22;20163;-85
2023/10/18 14:10:28;;;;;;;0.38;0.38;;;21.10;55.80;;;;;;6363760;22;20212;-85
2023/10/18 14:12:57;;;;;;;0.40;0.40;;;21.10;56.20;;;;;;6365973;22;20220;-87
2023/10/18 14:15:26;;;;;;;0.40;0.40;;;21.10;56.20;;;;;;6363464;22;20168;-86
2023/10/18 14:17:55;;;;;;;0.30;0.30;;;21.10;56.30;;;;;;6364933;22;20234;-85
2023/10/18 14:20:26;;;;;;;0.57;0.52;;;21.10;56.60;;;;;;6363677;22;20164;-86
2023/10/18 14:22:56;;;;;;;0.30;0.30;;;21.10;56.80;;;;;;6363602;22;20167;-87
2023/10/18 14:25:25;;;;;;;0.98;0.70;;;21.00;56.30;;;;;;6366642;22;20420;-87
2023/10/18 14:27:56;;;;;;;0.20;0.20;;;21.00;56.10;;;;;;6366800;22;20241;-88